createdAt,value
2022-10-11T00:02:00.491Z,11.68
2022-10-11T00:04:28.274Z,11.15
2022-10-11T00:06:56.025Z,11.38
2022-10-11T00:09:23.879Z,15.10
2022-10-11T00:11:51.479Z,12.07
2022-10-11T00:14:19.081Z,14.18
2022-10-11T00:16:46.642Z,15.75
2022-10-11T00:19:19.909Z,18.00
2022-10-11T00:21:48.344Z,14.70
2022-10-11T00:24:17.098Z,13.18
2022-10-11T00:26:47.032Z,16.27
2022-10-11T00:29:15.790Z,17.02
2022-10-11T00:31:43.340Z,15.05
2022-10-11T00:34:12.588Z,16.30
2022-10-11T00:36:42.093Z,13.45
2022-10-11T00:39:09.595Z,22.95
2022-10-11T00:41:37.625Z,12.77
2022-10-11T00:44:09.336Z,14.93
2022-10-11T00:46:37.117Z,16.35
2022-10-11T00:49:06.507Z,14.88
2022-10-11T00:51:40.368Z,11.95
2022-10-11T00:54:12.639Z,13.20
2022-10-11T00:56:41.786Z,19.88
2022-10-11T00:59:11.864Z,15.85
2022-10-11T01:01:39.484Z,17.85
2022-10-11T01:04:07.074Z,13.55
2022-10-11T01:06:34.895Z,20.55
2022-10-11T01:09:02.456Z,16.65
2022-10-11T01:11:32.029Z,15.88
2022-10-11T01:14:07.593Z,15.15
2022-10-11T01:16:36.788Z,19.25
2022-10-11T01:19:11.005Z,17.02
2022-10-11T01:21:42.808Z,23.38
2022-10-11T01:24:34.299Z,22.17
2022-10-11T01:27:20.822Z,20.60
2022-10-11T01:29:54.373Z,18.17
2022-10-11T01:32:27.468Z,17.13
2022-10-11T01:34:57.625Z,21.42
2022-10-11T01:37:28.302Z,28.00
2022-10-11T01:39:58.770Z,25.30
2022-10-11T01:42:27.261Z,23.70
2022-10-11T01:44:55.354Z,17.25
2022-10-11T01:47:24.981Z,24.77
2022-10-11T01:49:59.855Z,19.15
2022-10-11T01:52:28.484Z,26.70
2022-10-11T01:55:09.771Z,21.33
2022-10-11T01:57:58.549Z,24.98
2022-10-11T02:00:27.126Z,19.40
2022-10-11T02:03:04.971Z,25.77
2022-10-11T02:05:37.132Z,14.13
2022-10-11T02:08:07.990Z,16.38
2022-10-11T02:10:38.052Z,20.70
2022-10-11T02:13:09.309Z,17.02
2022-10-11T02:15:38.393Z,15.55
2022-10-11T02:18:08.578Z,18.23
2022-10-11T02:20:38.429Z,20.05
2022-10-11T02:23:08.701Z,23.55
2022-10-11T02:25:37.190Z,18.92
2022-10-11T02:28:09.229Z,19.90
2022-10-11T02:30:37.234Z,25.05
2022-10-11T02:33:06.679Z,20.15
2022-10-11T02:35:37.957Z,18.70
2022-10-11T02:38:10.489Z,22.02
2022-10-11T02:40:39.871Z,24.38
2022-10-11T02:43:10.020Z,19.23
2022-10-11T02:45:40.230Z,21.98
2022-10-11T02:48:08.183Z,21.95
2022-10-11T02:50:38.161Z,28.60
2022-10-11T02:53:05.835Z,22.90
2022-10-11T02:55:33.632Z,28.58
2022-10-11T02:58:08.494Z,26.20
2022-10-11T03:00:36.076Z,23.23
2022-10-11T03:03:03.671Z,23.13
2022-10-11T03:05:31.207Z,25.00
2022-10-11T03:08:00.181Z,24.02
2022-10-11T03:10:27.640Z,26.17
2022-10-11T03:12:55.132Z,21.50
2022-10-11T03:15:22.583Z,25.08
2022-10-11T03:17:50.228Z,30.88
2022-10-11T03:20:17.754Z,26.52
2022-10-11T03:22:45.282Z,30.00
2022-10-11T03:25:14.159Z,26.50
2022-10-11T03:27:41.636Z,31.20
2022-10-11T03:30:10.015Z,33.38
2022-10-11T03:32:37.868Z,32.50
2022-10-11T03:35:05.801Z,27.55
2022-10-11T03:37:33.305Z,29.13
2022-10-11T03:40:01.246Z,33.08
2022-10-11T03:42:30.403Z,30.17
2022-10-11T03:44:59.806Z,26.67
2022-10-11T03:47:27.374Z,37.03
2022-10-11T03:49:54.864Z,28.70
2022-10-11T03:52:22.626Z,44.40
2022-10-11T03:54:50.141Z,40.83
2022-10-11T03:57:17.618Z,39.08
2022-10-11T03:59:46.530Z,35.65
2022-10-11T04:02:14.126Z,48.75
2022-10-11T04:04:41.730Z,47.00
2022-10-11T04:07:09.552Z,46.47
2022-10-11T04:09:37.135Z,53.15
2022-10-11T04:12:06.151Z,45.58
2022-10-11T04:14:33.685Z,50.88
2022-10-11T04:17:02.613Z,47.20
2022-10-11T04:19:33.112Z,41.70
2022-10-11T04:22:00.605Z,55.65
2022-10-11T04:24:28.323Z,46.30
2022-10-11T04:26:55.870Z,45.45
2022-10-11T04:29:23.686Z,47.35
2022-10-11T04:31:52.483Z,48.53
2022-10-11T04:34:26.335Z,46.55
2022-10-11T04:36:53.926Z,47.20
2022-10-11T04:39:21.455Z,50.80
2022-10-11T04:41:48.971Z,43.47
2022-10-11T04:44:16.527Z,51.78
2022-10-11T04:46:44.024Z,44.28
2022-10-11T04:49:11.514Z,52.00
2022-10-11T04:51:44.958Z,46.25
2022-10-11T04:54:12.458Z,54.17
2022-10-11T05:44:10.503Z,77.32
2022-10-11T05:47:33.043Z,80.40
2022-10-11T05:50:06.469Z,77.55
2022-10-11T05:52:38.367Z,90.53
2022-10-11T05:55:06.209Z,81.32
2022-10-11T05:57:37.330Z,83.97
2022-10-11T06:00:05.275Z,79.95
2022-10-11T06:02:34.336Z,78.32
2022-10-11T06:05:03.318Z,80.47
2022-10-11T06:07:30.896Z,82.78
2022-10-11T06:09:58.437Z,78.57
2022-10-11T06:12:26.110Z,73.95
2022-10-11T06:14:57.797Z,75.78
2022-10-11T06:17:25.575Z,68.57
2022-10-11T06:19:53.077Z,87.05
2022-10-11T06:22:22.301Z,80.68
2022-10-11T06:24:50.151Z,78.15
2022-10-11T06:27:17.706Z,72.13
2022-10-11T06:29:45.430Z,77.93
2022-10-11T06:32:13.602Z,84.72
2022-10-11T06:34:41.193Z,80.50
2022-10-11T06:37:08.934Z,73.47
2022-10-11T06:39:37.819Z,78.45
2022-10-11T06:42:05.338Z,90.60
2022-10-11T06:44:32.847Z,76.70
2022-10-11T06:47:00.395Z,77.57
2022-10-11T06:49:27.881Z,82.93
2022-10-11T06:51:55.448Z,74.70
2022-10-11T06:54:23.079Z,82.05
2022-10-11T06:56:55.059Z,67.28
2022-10-11T06:59:22.754Z,63.20
2022-10-11T07:01:50.311Z,69.88
2022-10-11T07:04:17.851Z,64.43
2022-10-11T07:06:45.362Z,64.85
2022-10-11T07:09:12.821Z,69.10
2022-10-11T07:11:40.640Z,64.30
2022-10-11T07:14:10.612Z,82.68
2022-10-11T07:16:38.763Z,58.15
2022-10-11T07:19:06.852Z,61.30
2022-10-11T07:21:35.421Z,58.35
2022-10-11T07:24:03.245Z,60.55
2022-10-11T07:26:37.638Z,59.03
2022-10-11T07:29:07.073Z,44.97
2022-10-11T07:31:37.212Z,51.85
2022-10-11T07:34:04.727Z,48.60
2022-10-11T07:36:32.268Z,47.10
2022-10-11T07:39:00.158Z,52.17
2022-10-11T07:41:27.986Z,52.45
2022-10-11T07:43:55.632Z,53.47
2022-10-11T07:46:23.370Z,49.83
2022-10-11T07:48:52.212Z,55.92
2022-10-11T07:51:20.608Z,51.75
2022-10-11T07:53:49.298Z,56.72
2022-10-11T07:56:17.831Z,58.00
2022-10-11T07:58:48.762Z,55.35
2022-10-11T08:01:16.374Z,57.35
2022-10-11T08:03:43.928Z,64.60
2022-10-11T08:06:14.802Z,59.67
2022-10-11T08:08:42.583Z,53.40
2022-10-11T08:11:10.153Z,52.00
2022-10-11T08:13:37.765Z,52.33
2022-10-11T08:16:10.573Z,48.05
2022-10-11T08:18:38.481Z,47.08
2022-10-11T08:21:09.558Z,54.78
2022-10-11T08:23:39.161Z,44.97
2022-10-11T08:26:07.637Z,42.90
2022-10-11T08:28:35.465Z,40.40
2022-10-11T08:31:03.124Z,34.35
2022-10-11T08:33:31.015Z,43.35
2022-10-11T08:35:58.622Z,42.33
2022-10-11T08:38:29.332Z,41.45
2022-10-11T08:40:59.453Z,44.13
2022-10-11T08:43:32.021Z,39.00
2022-10-11T08:46:01.027Z,39.05
2022-10-11T08:48:33.632Z,45.83
2022-10-11T08:51:01.938Z,35.92
2022-10-11T08:53:42.247Z,44.65
2022-10-11T08:56:12.884Z,35.35
2022-10-11T08:58:42.213Z,45.00
2022-10-11T09:01:15.271Z,40.03
2022-10-11T09:03:43.656Z,33.20
2022-10-11T09:06:15.449Z,34.80
2022-10-11T09:08:47.979Z,40.25
2022-10-11T09:11:21.240Z,39.72
2022-10-11T09:14:03.153Z,32.45
2022-10-11T09:16:36.503Z,36.50
2022-10-11T09:19:16.685Z,34.65
2022-10-11T09:21:47.931Z,32.70
2022-10-11T09:24:38.163Z,31.60
2022-10-11T09:27:12.471Z,37.05
2022-10-11T09:29:49.251Z,32.55
2022-10-11T09:32:17.940Z,27.08
2022-10-11T09:34:45.328Z,33.00
2022-10-11T09:37:23.490Z,31.63
2022-10-11T09:39:56.522Z,34.85
2022-10-11T09:42:49.082Z,36.03
2022-10-11T09:45:50.162Z,43.72
2022-10-11T09:48:23.496Z,36.55
2022-10-11T09:50:53.733Z,33.67
2022-10-11T09:53:50.598Z,33.05
2022-10-11T09:56:31.988Z,32.05
2022-10-11T09:59:10.501Z,39.10
2022-10-11T10:01:41.000Z,33.15
2022-10-11T10:04:27.641Z,32.97
2022-10-11T10:07:19.220Z,33.00
2022-10-11T10:10:03.089Z,30.40
2022-10-11T10:12:39.181Z,30.65
2022-10-11T10:15:27.852Z,27.35
2022-10-11T10:21:02.996Z,30.48
2022-10-11T10:23:31.566Z,28.70
2022-10-11T10:26:17.016Z,31.30
2022-10-11T10:29:02.325Z,27.05
2022-10-11T10:31:49.436Z,28.73
2022-10-11T10:34:26.486Z,30.13
2022-10-11T10:36:57.433Z,29.50
2022-10-11T10:39:27.226Z,28.15
2022-10-11T10:41:55.210Z,27.60
2022-10-11T10:44:22.738Z,24.25
2022-10-11T10:46:55.703Z,26.30
2022-10-11T10:49:52.455Z,23.55
2022-10-11T10:52:34.065Z,27.27
2022-10-11T10:55:05.672Z,25.38
2022-10-11T10:57:38.692Z,24.83
2022-10-11T11:00:12.223Z,22.10
2022-10-11T11:02:47.396Z,23.35
2022-10-11T11:05:21.278Z,19.83
2022-10-11T11:07:52.784Z,29.55
2022-10-11T11:10:21.957Z,16.38
2022-10-11T11:12:53.985Z,19.63
2022-10-11T11:15:31.315Z,21.27
2022-10-11T11:18:07.960Z,23.27
2022-10-11T11:20:40.198Z,16.92
2022-10-11T11:23:15.133Z,19.30
2022-10-11T11:25:45.149Z,24.50
2022-10-11T11:28:33.039Z,20.27
2022-10-11T11:31:05.246Z,18.35
2022-10-11T11:33:44.049Z,25.13
2022-10-11T11:36:17.350Z,15.05
2022-10-11T11:38:49.425Z,19.90
2022-10-11T11:41:20.278Z,25.13
2022-10-11T11:43:54.554Z,23.63
2022-10-11T11:46:25.122Z,18.70
2022-10-11T11:48:53.704Z,17.95
2022-10-11T11:51:22.463Z,14.00
2022-10-11T11:53:54.618Z,16.08
2022-10-11T11:56:31.284Z,14.02
2022-10-11T11:59:03.988Z,17.02
2022-10-11T12:01:34.560Z,10.88
2022-10-11T12:04:04.194Z,16.65
2022-10-11T12:06:33.052Z,13.05
2022-10-11T12:09:04.156Z,17.70
2022-10-11T12:11:40.834Z,12.25
2022-10-11T12:14:19.715Z,16.15
2022-10-11T12:17:05.756Z,20.98
2022-10-11T12:19:33.291Z,18.38
2022-10-11T12:22:15.681Z,21.67
2022-10-11T12:24:55.370Z,18.95
2022-10-11T12:27:39.230Z,16.15
2022-10-11T12:30:27.160Z,14.63
2022-10-11T12:33:04.084Z,14.65
2022-10-11T12:36:05.635Z,18.58
2022-10-11T12:38:37.795Z,14.88
2022-10-11T12:41:20.349Z,16.73
2022-10-11T12:44:06.633Z,16.13
2022-10-11T12:46:45.369Z,12.38
2022-10-11T12:49:33.255Z,14.32
2022-10-11T12:52:02.751Z,18.30
2022-10-11T12:54:47.311Z,17.92
2022-10-11T12:57:28.412Z,10.73
2022-10-11T12:59:56.310Z,20.30
2022-10-11T13:02:29.034Z,19.27
2022-10-11T13:05:09.717Z,13.15
2022-10-11T13:07:37.303Z,12.38
2022-10-11T13:10:06.174Z,17.08
2022-10-11T13:12:37.623Z,12.80
2022-10-11T13:15:09.715Z,11.27
2022-10-11T13:17:39.518Z,18.80
2022-10-11T13:20:10.566Z,15.25
2022-10-11T13:22:40.115Z,14.77
2022-10-11T13:25:08.330Z,13.95
2022-10-11T13:27:37.764Z,15.05
2022-10-11T13:30:09.125Z,13.15
2022-10-11T13:32:38.209Z,11.05
2022-10-11T13:35:06.627Z,16.38
2022-10-11T13:37:41.406Z,16.23
2022-10-11T13:40:13.866Z,16.63
2022-10-11T13:42:41.765Z,14.43
2022-10-11T13:45:12.236Z,11.82
2022-10-11T13:47:41.366Z,16.48
2022-10-11T13:50:11.225Z,14.15
2022-10-11T13:52:56.366Z,15.25
2022-10-11T13:55:25.659Z,14.27
2022-10-11T13:57:53.308Z,13.77
2022-10-11T14:00:25.714Z,14.23
2022-10-11T14:02:56.111Z,16.13
2022-10-11T14:05:26.549Z,14.77
2022-10-11T14:07:54.352Z,11.57
2022-10-11T14:10:22.617Z,11.13
2022-10-11T14:12:59.042Z,11.30
2022-10-11T14:15:28.759Z,12.32
2022-10-11T14:17:58.202Z,13.48
2022-10-11T14:20:32.321Z,13.35
2022-10-11T14:23:00.690Z,13.82
2022-10-11T14:25:28.451Z,16.67
2022-10-11T14:27:56.109Z,20.85
2022-10-11T14:30:26.458Z,15.02
2022-10-11T14:32:56.047Z,19.27
2022-10-11T14:35:26.154Z,14.13
2022-10-11T14:37:53.850Z,14.05
2022-10-11T14:40:22.355Z,12.73
2022-10-11T14:42:50.620Z,18.73
2022-10-11T14:45:18.606Z,18.40
2022-10-11T14:47:46.436Z,21.23
2022-10-11T14:50:33.001Z,23.45
2022-10-11T14:53:01.307Z,22.88
2022-10-11T14:55:29.037Z,14.73
2022-10-11T14:57:56.668Z,28.35
2022-10-11T15:00:25.293Z,20.42
2022-10-11T15:02:53.803Z,18.75
2022-10-11T15:05:21.621Z,14.85
2022-10-11T15:07:51.023Z,10.82
2022-10-11T15:10:35.320Z,16.40
2022-10-11T15:13:10.661Z,19.42
2022-10-11T15:15:40.841Z,16.00
2022-10-11T15:18:15.060Z,17.88
2022-10-11T15:20:43.538Z,23.60
2022-10-11T15:23:12.905Z,17.20
2022-10-11T15:25:46.598Z,23.10
2022-10-11T15:28:21.250Z,20.75
2022-10-11T15:30:52.038Z,19.33
2022-10-11T15:33:19.678Z,14.60
2022-10-11T15:35:49.291Z,17.58
2022-10-11T15:38:19.926Z,23.58
2022-10-11T15:41:00.276Z,18.50
2022-10-11T15:43:28.618Z,22.88
2022-10-11T15:46:24.939Z,18.85
2022-10-11T15:48:52.937Z,20.30
2022-10-11T15:51:22.193Z,18.17
2022-10-11T15:53:51.498Z,18.00
2022-10-11T15:56:19.748Z,21.63
2022-10-11T15:58:55.278Z,17.98
2022-10-11T16:01:33.930Z,18.88
2022-10-11T16:04:01.852Z,21.70
2022-10-11T16:07:30.811Z,17.05
2022-10-11T16:10:30.081Z,21.92
2022-10-11T16:13:13.768Z,20.35
2022-10-11T16:15:57.476Z,22.40
2022-10-11T16:18:39.340Z,22.25
2022-10-11T16:21:41.062Z,19.33
2022-10-11T16:24:14.585Z,23.17
2022-10-11T16:26:45.053Z,19.58
2022-10-11T16:29:14.044Z,20.35
2022-10-11T16:32:27.669Z,38.38
2022-10-11T16:35:14.777Z,19.65
2022-10-11T16:41:42.913Z,19.27
2022-10-11T16:45:13.692Z,19.30
2022-10-11T16:51:19.953Z,28.48
2022-10-11T17:00:04.322Z,24.48
2022-10-11T17:02:39.155Z,21.95
2022-10-11T17:05:09.101Z,24.85
2022-10-11T17:07:39.762Z,14.43
2022-10-11T17:10:57.898Z,20.08
2022-10-11T17:13:30.532Z,19.27
2022-10-11T17:15:59.584Z,22.30
2022-10-11T17:18:55.257Z,21.15
2022-10-11T17:21:55.064Z,20.77
2022-10-11T17:24:22.620Z,27.52
2022-10-11T17:26:53.747Z,23.23
2022-10-11T17:29:42.957Z,20.10
2022-10-11T17:32:13.350Z,14.70
2022-10-11T17:34:52.850Z,18.67
2022-10-11T17:37:21.490Z,25.63
2022-10-11T17:39:49.221Z,20.02
2022-10-11T17:42:19.733Z,17.88
2022-10-11T17:44:48.819Z,25.77
2022-10-11T17:47:19.568Z,22.85
2022-10-11T17:49:47.053Z,23.80
2022-10-11T17:52:17.468Z,21.25
2022-10-11T17:54:59.012Z,21.23
2022-10-11T17:57:26.784Z,24.42
2022-10-11T18:00:01.571Z,18.60
2022-10-11T18:02:32.659Z,25.60
2022-10-11T18:05:00.216Z,28.27
2022-10-11T18:07:27.707Z,25.92
2022-10-11T18:09:55.187Z,27.30
2022-10-11T18:12:50.131Z,27.25
2022-10-11T18:15:19.012Z,28.05
2022-10-11T18:17:50.244Z,21.75
2022-10-11T18:20:20.786Z,24.20
2022-10-11T18:23:29.899Z,26.08
2022-10-11T18:26:00.006Z,27.80
2022-10-11T18:28:27.569Z,24.75
2022-10-11T18:30:59.332Z,39.58
2022-10-11T18:33:29.313Z,38.05
2022-10-11T18:36:02.914Z,35.72
2022-10-11T18:41:39.456Z,25.63
2022-10-11T18:44:41.332Z,27.67
2022-10-11T18:47:18.750Z,26.55
2022-10-11T18:49:47.999Z,27.77
2022-10-11T18:52:21.133Z,24.08
2022-10-11T18:54:51.588Z,32.20
2022-10-11T18:57:21.645Z,27.30
2022-10-11T18:59:49.259Z,25.38
2022-10-11T19:02:21.913Z,38.75
2022-10-11T19:04:52.810Z,39.25
2022-10-11T19:07:24.707Z,42.47
2022-10-11T19:09:54.928Z,36.47
2022-10-11T19:12:32.076Z,27.33
2022-10-11T19:15:28.944Z,33.03
2022-10-11T19:17:58.044Z,29.77
2022-10-11T19:20:31.534Z,20.33
2022-10-11T19:23:08.081Z,26.17
2022-10-11T19:25:41.890Z,28.10
2022-10-11T19:28:22.914Z,29.00
2022-10-11T19:34:36.143Z,31.98
2022-10-11T19:40:22.234Z,22.10
2022-10-11T19:43:37.225Z,23.77
2022-10-11T19:46:49.763Z,22.63
2022-10-11T19:49:22.059Z,20.80
2022-10-11T19:51:58.898Z,33.17
2022-10-11T19:55:06.991Z,29.90
2022-10-11T20:04:46.970Z,30.05
2022-10-11T20:07:07.005Z,32.30
2022-10-11T20:09:34.651Z,29.13
2022-10-11T20:12:02.155Z,30.20
2022-10-11T20:14:29.783Z,29.83
2022-10-11T20:16:57.337Z,28.40
2022-10-11T20:19:30.526Z,33.92
2022-10-11T20:21:59.305Z,29.80
2022-10-11T20:24:29.013Z,20.63
2022-10-11T20:26:56.646Z,30.58
2022-10-11T20:29:24.581Z,23.48
2022-10-11T20:31:52.100Z,20.40
2022-10-11T20:34:19.575Z,24.45
2022-10-11T20:36:49.393Z,25.40
2022-10-11T20:39:17.808Z,29.38
2022-10-11T20:41:45.465Z,28.05
2022-10-11T20:44:16.015Z,25.15
2022-10-11T20:46:43.711Z,22.30
2022-10-11T20:49:12.226Z,25.67
2022-10-11T20:51:41.494Z,30.85
2022-10-11T20:54:10.687Z,30.27
2022-10-11T20:56:38.573Z,27.25
2022-10-11T20:59:06.705Z,25.00
2022-10-11T21:01:35.506Z,27.33
2022-10-11T21:04:03.547Z,25.38
2022-10-11T21:06:32.045Z,32.75
2022-10-11T21:08:59.954Z,31.02
2022-10-11T21:11:29.783Z,27.77
2022-10-11T21:13:57.894Z,30.38
2022-10-11T21:16:25.645Z,29.02
2022-10-11T21:18:53.570Z,26.50
2022-10-11T21:21:21.267Z,35.97
2022-10-11T21:23:48.901Z,26.73
2022-10-11T21:26:18.258Z,30.50
2022-10-11T21:28:47.330Z,31.95
2022-10-11T21:31:16.094Z,28.75
2022-10-11T21:33:44.614Z,35.22
2022-10-11T21:36:12.995Z,32.03
2022-10-11T21:38:40.749Z,29.83
2022-10-11T21:41:09.451Z,37.15
2022-10-11T21:43:38.294Z,33.80
2022-10-11T21:46:11.002Z,27.45
2022-10-11T21:48:38.665Z,21.67
2022-10-11T21:51:06.352Z,31.10
2022-10-11T21:53:35.401Z,31.13
2022-10-11T21:56:02.883Z,27.70
2022-10-11T21:58:30.470Z,29.33
2022-10-11T22:00:57.928Z,31.15
2022-10-11T22:03:26.767Z,27.27
2022-10-11T22:05:54.253Z,26.38
2022-10-11T22:08:21.773Z,25.88
2022-10-11T22:10:53.684Z,22.55
2022-10-11T22:13:21.622Z,24.20
2022-10-11T22:15:49.179Z,29.17
2022-10-11T22:18:16.661Z,23.20
2022-10-11T22:20:46.006Z,27.70
2022-10-11T22:23:13.545Z,27.50
2022-10-11T22:25:41.132Z,29.45
2022-10-11T22:28:08.799Z,26.33
2022-10-11T22:30:36.371Z,34.13
2022-10-11T22:33:03.904Z,32.30
2022-10-11T22:35:33.596Z,29.08
2022-10-11T22:38:04.557Z,27.70
2022-10-11T22:40:32.053Z,27.27
2022-10-11T22:42:59.527Z,28.15
2022-10-11T22:45:27.014Z,24.48
2022-10-11T22:47:54.580Z,30.02
2022-10-11T22:50:22.073Z,26.75
2022-10-11T22:52:49.576Z,28.45
2022-10-11T22:55:20.246Z,28.88
2022-10-11T22:57:47.964Z,30.42
2022-10-11T23:00:15.705Z,32.30
2022-10-11T23:02:43.236Z,24.73
2022-10-11T23:05:10.784Z,24.17
2022-10-11T23:07:38.548Z,28.77
2022-10-11T23:10:06.648Z,23.02
2022-10-11T23:12:35.656Z,28.23
2022-10-11T23:15:03.167Z,32.60
2022-10-11T23:17:30.649Z,23.60
2022-10-11T23:19:58.268Z,27.42
2022-10-11T23:22:25.736Z,23.13
2022-10-11T23:24:53.249Z,26.70
2022-10-11T23:27:20.847Z,25.17
2022-10-11T23:29:49.700Z,26.80
2022-10-11T23:32:17.169Z,26.42
2022-10-11T23:34:44.699Z,25.17
2022-10-11T23:37:12.187Z,29.33
2022-10-11T23:39:39.873Z,28.25
2022-10-11T23:42:07.403Z,28.50
2022-10-11T23:44:34.935Z,30.25
2022-10-11T23:47:03.821Z,26.13
2022-10-11T23:49:31.323Z,30.13
2022-10-11T23:51:58.803Z,34.08
2022-10-11T23:54:26.317Z,30.98
2022-10-11T23:56:53.794Z,28.38
2022-10-11T23:59:21.368Z,26.80
